Time;durP1;ratioP1;P1;durP2;ratioP2;P2;SDS_P1;SDS_P2;PMS_P1;PMS_P2;Temp;Humidity;BMP_temperature;BMP_pressure;BME280_temperature;BME280_humidity;BME280_pressure;Samples;Min_cycle;Max_cycle;Signal;HPM_P1;HPM_P2
2021/04/30 00:01:18;;;;;;;;;57.00;43.00;;;;;9.86;100.00;98962.00;3569206;40;838871;-53
2021/04/30 00:03:45;;;;;;;;;47.00;40.00;;;;;10.07;100.00;98962.28;3604921;39;9893;-54
2021/04/30 00:06:12;;;;;;;;;54.67;42.33;;;;;10.06;100.00;98960.59;3589427;40;9932;-54
2021/04/30 00:08:39;;;;;;;;;56.67;43.00;;;;;9.87;100.00;98967.25;3590277;40;10047;-54
2021/04/30 00:11:08;;;;;;;;;49.67;39.33;;;;;9.84;100.00;98966.59;3595611;40;10182;-56
2021/04/30 00:13:37;;;;;;;;;57.00;43.33;;;;;9.35;100.00;98960.16;3592330;39;9964;-54
2021/04/30 00:16:05;;;;;;;;;56.00;44.00;;;;;9.51;100.00;98964.47;3597547;39;9865;-54
2021/04/30 00:18:33;;;;;;;;;49.67;39.00;;;;;10.07;100.00;98963.16;3598043;40;10169;-54
2021/04/30 00:21:01;;;;;;;;;51.00;41.00;;;;;9.61;100.00;98961.03;3596347;40;10222;-51
2021/04/30 00:23:29;;;;;;;;;46.33;39.00;;;;;10.03;100.00;98972.41;3587448;40;9951;-54
2021/04/30 00:25:58;;;;;;;;;45.00;39.67;;;;;9.68;100.00;98956.09;3587666;40;10011;-55
2021/04/30 00:28:26;;;;;;;;;51.67;43.00;;;;;9.83;100.00;98963.06;3596845;39;10145;-55
2021/04/30 00:30:54;;;;;;;;;41.67;37.33;;;;;9.54;100.00;98961.56;3589859;39;10116;-54
2021/04/30 00:33:23;;;;;;;;;54.33;41.00;;;;;9.47;100.00;98962.94;3588633;40;10341;-54
2021/04/30 00:35:51;;;;;;;;;45.67;37.00;;;;;9.81;100.00;98959.63;3589611;39;9967;-54
2021/04/30 00:38:20;;;;;;;;;40.33;36.33;;;;;9.74;100.00;98977.13;3587116;40;9917;-52
2021/04/30 00:40:48;;;;;;;;;36.00;33.00;;;;;9.85;100.00;98965.66;3587363;40;10078;-53
2021/04/30 00:43:15;;;;;;;;;39.00;35.33;;;;;9.92;100.00;98958.88;3587170;40;10092;-55
2021/04/30 00:45:42;;;;;;;;;43.00;37.00;;;;;9.81;100.00;98962.31;3593262;40;10044;-55
2021/04/30 00:48:10;;;;;;;;;34.00;28.00;;;;;10.30;100.00;98974.09;3592282;40;10007;-54
2021/04/30 00:50:38;;;;;;;;;39.67;31.33;;;;;9.97;100.00;98967.44;3594066;39;9856;-54
2021/04/30 00:53:06;;;;;;;;;32.33;29.67;;;;;10.06;100.00;98963.28;3588429;40;9944;-54
2021/04/30 00:55:33;;;;;;;;;27.00;25.67;;;;;9.90;100.00;98955.47;3591204;39;9833;-54
2021/04/30 00:58:02;;;;;;;;;41.67;31.33;;;;;9.98;100.00;98957.56;3590804;40;9937;-55
2021/04/30 01:00:33;;;;;;;;;34.67;31.33;;;;;9.88;100.00;98968.97;3587712;40;9859;-53
2021/04/30 01:03:00;;;;;;;;;43.33;34.67;;;;;9.74;100.00;98971.78;3587319;40;9989;-54
2021/04/30 01:05:28;;;;;;;;;35.33;28.33;;;;;9.80;100.00;98959.75;3594274;40;9818;-55
2021/04/30 01:07:55;;;;;;;;;38.67;32.33;;;;;9.89;100.00;98962.63;3588310;40;10311;-55
2021/04/30 01:10:23;;;;;;;;;40.33;29.67;;;;;9.79;100.00;98956.19;3586994;40;10091;-56
2021/04/30 01:12:50;;;;;;;;;40.00;30.67;;;;;9.71;100.00;98955.88;3587429;40;9917;-52
2021/04/30 01:15:19;;;;;;;;;31.67;27.00;;;;;9.51;100.00;98961.78;3593116;40;9823;-56
2021/04/30 01:17:47;;;;;;;;;28.67;25.00;;;;;9.75;100.00;98973.47;3596103;40;9915;-54
2021/04/30 01:20:19;;;;;;;;;26.00;26.00;;;;;9.58;100.00;98963.91;3594087;40;9817;-55
2021/04/30 01:22:52;;;;;;;;;30.33;26.00;;;;;9.73;100.00;98963.81;3596637;40;9959;-54
2021/04/30 01:25:35;;;;;;;;;29.00;26.67;;;;;9.66;100.00;98963.38;3587415;40;10607;-54
2021/04/30 01:28:03;;;;;;;;;30.00;23.00;;;;;9.98;100.00;98957.56;3586659;40;9780;-52
2021/04/30 01:30:36;;;;;;;;;24.33;23.00;;;;;10.20;100.00;98957.78;3594413;40;9822;-53
2021/04/30 01:33:15;;;;;;;;;28.33;23.00;;;;;9.77;100.00;98950.09;3594319;39;10317;-55
2021/04/30 01:35:42;;;;;;;;;23.67;22.00;;;;;10.07;100.00;98962.28;3593179;40;10366;-55
2021/04/30 01:38:09;;;;;;;;;27.33;22.00;;;;;10.30;100.00;98952.63;3597048;40;10159;-55
2021/04/30 01:40:37;;;;;;;;;23.33;22.00;;;;;10.10;100.00;98962.06;3596040;39;10155;-53
2021/04/30 01:43:16;;;;;;;;;32.33;22.33;;;;;10.01;100.00;98960.06;3591803;40;9827;-54
2021/04/30 01:45:55;;;;;;;;;31.33;25.33;;;;;9.74;100.00;98965.53;3594269;40;9922;-52
2021/04/30 01:48:29;;;;;;;;;30.67;25.67;;;;;9.75;100.00;98962.75;3591464;40;9926;-54
2021/04/30 01:51:02;;;;;;;;;23.00;22.33;;;;;10.00;100.00;98966.38;3604717;39;9907;-54
2021/04/30 01:53:33;;;;;;;;;30.33;24.33;;;;;10.11;100.00;98966.50;3597102;39;10018;-56
2021/04/30 01:56:12;;;;;;;;;26.67;22.67;;;;;10.03;100.00;98963.47;3591221;39;9846;-56
2021/04/30 01:58:40;;;;;;;;;29.33;24.33;;;;;10.10;100.00;98964.75;3587430;40;9974;-55
2021/04/30 02:01:09;;;;;;;;;32.33;30.00;;;;;10.23;100.00;98962.91;3590457;40;9961;-55
2021/04/30 02:03:37;;;;;;;;;32.67;29.67;;;;;9.57;100.00;98962.19;3588647;40;9947;-55
2021/04/30 02:06:05;;;;;;;;;35.33;29.33;;;;;9.23;100.00;98955.59;3588790;39;10063;-55
2021/04/30 02:08:32;;;;;;;;;41.33;35.33;;;;;9.22;100.00;98960.13;3586945;40;9897;-54
2021/04/30 02:11:04;;;;;;;;;81.33;58.67;;;;;9.15;100.00;98958.81;3589083;40;9959;-56
2021/04/30 02:13:31;;;;;;;;;80.67;58.00;;;;;9.54;100.00;98967.78;3590243;39;10849;-54
2021/04/30 02:15:58;;;;;;;;;56.00;41.33;;;;;9.79;100.00;98966.91;3587066;40;10004;-55
2021/04/30 02:18:26;;;;;;;;;45.33;35.00;;;;;9.76;100.00;98964.44;3589010;40;10079;-54
2021/04/30 02:20:53;;;;;;;;;47.67;36.67;;;;;9.64;100.00;98965.31;3586839;40;9948;-54
2021/04/30 02:23:21;;;;;;;;;33.67;28.00;;;;;9.89;100.00;98967.97;3594927;39;10578;-54
2021/04/30 02:25:49;;;;;;;;;39.67;30.67;;;;;10.13;100.00;98966.38;3591752;40;9909;-54
2021/04/30 02:28:16;;;;;;;;;18.75;14.00;;;;;10.92;100.00;98955.19;3586682;40;10697;-54
2021/04/30 02:30:43;;;;;;;;;25.00;15.33;;;;;10.38;100.00;98963.69;3588373;40;10138;-53
2021/04/30 02:33:11;;;;;;;;;23.33;20.33;;;;;10.31;100.00;98971.28;3588051;40;10039;-55
2021/04/30 02:35:43;;;;;;;;;19.33;14.33;;;;;10.41;100.00;98967.97;3588748;40;10200;-56
2021/04/30 02:38:12;;;;;;;;;26.33;20.33;;;;;10.24;100.00;98969.13;3586642;40;10335;-54
2021/04/30 02:40:41;;;;;;;;;32.67;21.67;;;;;10.43;100.00;98955.31;3586293;40;9940;-54
2021/04/30 02:43:14;;;;;;;;;34.00;28.00;;;;;10.20;100.00;98962.28;3595540;39;9776;-55
2021/04/30 02:45:43;;;;;;;;;57.33;44.33;;;;;10.38;100.00;98962.81;3596539;39;10173;-55
2021/04/30 02:48:22;;;;;;;;;51.67;41.00;;;;;10.10;100.00;98959.38;3588187;40;10144;-52
2021/04/30 02:50:49;;;;;;;;;34.00;29.00;;;;;10.18;100.00;98964.22;3594779;39;10429;-55
2021/04/30 02:53:16;;;;;;;;;26.67;22.00;;;;;10.41;100.00;98970.66;3594825;40;10335;-55
2021/04/30 02:55:43;;;;;;;;;16.00;11.00;;;;;10.46;100.00;98963.13;3597779;39;10752;-56
2021/04/30 02:58:11;;;;;;;;;26.25;17.00;;;;;10.01;100.00;98970.78;3598217;40;10717;-54
2021/04/30 03:00:39;;;;;;;;;16.00;16.00;;;;;10.06;100.00;98971.31;3597703;39;10303;-54
2021/04/30 03:03:06;;;;;;;;;34.00;30.00;;;;;9.83;100.00;98971.09;3596307;40;9984;-54
2021/04/30 03:05:33;;;;;;;;;38.33;24.33;;;;;10.03;100.00;98974.19;3589589;39;9823;-54
2021/04/30 03:08:00;;;;;;;;;35.33;27.00;;;;;9.97;100.00;98977.31;3597330;39;10299;-55
2021/04/30 03:10:28;;;;;;;;;38.00;27.33;;;;;9.96;100.00;98979.16;3597920;39;9919;-54
2021/04/30 03:12:55;;;;;;;;;20.67;17.67;;;;;9.92;100.00;98982.16;3590491;39;10242;-55
2021/04/30 03:15:22;;;;;;;;;22.33;17.67;;;;;10.17;100.00;98978.59;3598006;40;10102;-56
2021/04/30 03:17:49;;;;;;;;;18.67;16.00;;;;;10.15;100.00;98985.91;3596068;40;10118;-57
2021/04/30 03:20:18;;;;;;;;;15.67;14.67;;;;;10.15;100.00;98989.44;3586598;40;10345;-55
2021/04/30 03:22:46;;;;;;;;;18.33;16.00;;;;;10.12;100.00;98986.97;3587643;40;10416;-57
2021/04/30 03:25:15;;;;;;;;;19.67;17.67;;;;;10.39;100.00;98994.03;3587870;40;10081;-54
2021/04/30 03:27:43;;;;;;;;;22.33;14.67;;;;;9.98;100.00;98995.13;3588122;40;10356;-54
2021/04/30 03:30:11;;;;;;;;;23.00;17.00;;;;;10.06;100.00;98993.63;3596779;40;10307;-55
2021/04/30 03:32:39;;;;;;;;;25.33;20.67;;;;;10.23;100.00;98996.94;3597392;39;10368;-54
2021/04/30 03:35:07;;;;;;;;;26.33;25.33;;;;;10.07;100.00;98997.16;3597995;39;9831;-55
2021/04/30 03:37:34;;;;;;;;;41.33;35.00;;;;;10.22;100.00;98996.09;3588972;39;9936;-54
2021/04/30 03:40:03;;;;;;;;;56.00;43.00;;;;;10.20;100.00;99005.22;3587874;40;9852;-55
2021/04/30 03:42:30;;;;;;;;;18.00;15.75;;;;;10.33;100.00;99006.94;3588398;40;10732;-54
2021/04/30 03:44:57;;;;;;;;;21.00;15.33;;;;;10.43;100.00;99003.59;3593505;40;10412;-51
2021/04/30 03:47:24;;;;;;;;;17.00;17.00;;;;;10.44;100.00;99003.47;3597637;39;10374;-54
2021/04/30 03:49:50;;;;;;;;;17.50;16.25;;;;;10.49;100.00;99005.84;3601996;39;10824;-51
2021/04/30 03:52:17;;;;;;;;;18.50;15.50;;;;;10.33;100.00;99006.94;3595799;39;14208;-54
2021/04/30 03:54:44;;;;;;;;;18.00;14.00;;;;;10.31;100.00;99003.50;3592859;39;10723;-54
2021/04/30 03:57:11;;;;;;;;;27.33;17.67;;;;;10.25;100.00;99006.59;3587672;40;14055;-55
2021/04/30 03:59:38;;;;;;;;;19.50;17.00;;;;;10.27;100.00;99012.75;3587303;40;10609;-55
2021/04/30 04:02:05;;;;;;;;;18.00;16.00;;;;;10.27;100.00;99017.22;3587283;40;14610;-56
2021/04/30 04:04:32;;;;;;;;;19.00;17.00;;;;;10.27;100.00;99023.47;3586912;40;14155;-55
2021/04/30 04:06:59;;;;;;;;;20.50;14.00;;;;;10.41;100.00;99027.00;3587677;40;14574;-54
2021/04/30 04:09:26;;;;;;;;;24.25;16.50;;;;;10.37;100.00;99030.84;3594059;40;14090;-54
2021/04/30 04:11:53;;;;;;;;;20.00;17.00;;;;;10.46;100.00;99035.59;3587121;40;14032;-55
2021/04/30 04:14:20;;;;;;;;;17.50;13.00;;;;;10.55;100.00;99037.59;3587276;40;14042;-54
2021/04/30 04:16:46;;;;;;;;;24.75;15.25;;;;;10.80;100.00;99030.47;3587026;40;14267;-54
2021/04/30 04:19:17;;;;;;;;;13.00;12.25;;;;;10.96;100.00;99031.91;3587557;40;14067;-54
2021/04/30 04:21:45;;;;;;;;;16.00;14.00;;;;;11.10;100.00;99038.94;3587868;40;14033;-56
2021/04/30 04:24:12;;;;;;;;;15.50;13.00;;;;;11.29;100.00;99037.56;3587580;40;14046;-54
2021/04/30 04:26:39;;;;;;;;;19.50;19.25;;;;;11.35;100.00;99034.44;3595084;40;14059;-53
2021/04/30 04:29:07;;;;;;;;;36.67;30.67;;;;;11.59;100.00;99027.19;3587372;40;14082;-55
2021/04/30 04:31:36;;;;;;;;;33.75;21.75;;;;;11.74;100.00;99043.09;3593578;40;10833;-52
2021/04/30 04:34:04;;;;;;;;;19.00;15.00;;;;;11.79;99.36;99052.53;3597271;39;10660;-55
2021/04/30 04:36:32;;;;;;;;;19.75;14.75;;;;;11.81;99.53;99049.72;3597523;39;14073;-56
2021/04/30 04:39:00;;;;;;;;;15.50;13.00;;;;;11.79;99.54;99057.06;3596569;40;14583;-56
2021/04/30 04:41:27;;;;;;;;;12.75;12.50;;;;;11.86;99.49;99061.88;3596810;39;14056;-57
2021/04/30 04:43:54;;;;;;;;;14.25;13.75;;;;;11.93;98.62;99053.34;3597306;39;14035;-55
2021/04/30 04:46:21;;;;;;;;;19.50;14.00;;;;;12.12;98.20;99052.78;3597068;39;14011;-57
2021/04/30 04:48:48;;;;;;;;;15.00;13.25;;;;;12.16;97.37;99056.94;3591641;39;14133;-55
2021/04/30 04:51:15;;;;;;;;;16.75;13.50;;;;;12.35;96.63;99067.97;3599643;39;14069;-56
2021/04/30 04:53:41;;;;;;;;;14.00;11.25;;;;;12.37;97.01;99065.16;3590202;40;14183;-54
2021/04/30 04:56:17;;;;;;;;;15.25;15.00;;;;;12.43;97.15;99072.75;3587281;40;14050;-56
2021/04/30 04:58:43;;;;;;;;;13.75;11.75;;;;;12.50;96.46;99077.50;3594736;40;14008;-54
2021/04/30 05:01:10;;;;;;;;;18.00;15.25;;;;;12.71;95.76;99079.47;3587485;40;14026;-55
2021/04/30 05:03:37;;;;;;;;;14.50;11.00;;;;;12.84;94.46;99077.50;3586931;40;14047;-55
2021/04/30 05:06:05;;;;;;;;;15.25;14.25;;;;;12.87;95.14;99081.78;3587756;40;14033;-58
2021/04/30 05:08:32;;;;;;;;;16.00;13.00;;;;;12.92;95.82;99087.66;3596883;39;13997;-55
2021/04/30 05:10:59;;;;;;;;;11.00;9.00;;;;;13.01;95.21;99089.63;3594942;40;14001;-57
2021/04/30 05:13:26;;;;;;;;;13.50;8.75;;;;;13.11;94.38;99096.00;3597107;40;14234;-57
2021/04/30 05:15:56;;;;;;;;;11.50;8.75;;;;;13.11;94.63;99100.50;3596478;39;14010;-55
2021/04/30 05:18:23;;;;;;;;;14.50;9.25;;;;;13.10;94.96;99093.41;3596924;40;13989;-57
2021/04/30 05:20:50;;;;;;;;;17.25;15.00;;;;;13.07;94.69;99097.22;3597109;39;14027;-54
2021/04/30 05:23:17;;;;;;;;;15.25;14.00;;;;;13.18;93.74;99093.63;3597264;39;14012;-56
2021/04/30 05:25:45;;;;;;;;;13.00;12.00;;;;;13.06;93.81;99094.63;3596711;39;14570;-54
2021/04/30 05:28:12;;;;;;;;;8.50;8.00;;;;;12.93;94.14;99092.94;3597145;39;14133;-53
2021/04/30 05:30:39;;;;;;;;;12.75;11.50;;;;;12.87;94.72;99098.81;3596874;39;13964;-55
2021/04/30 05:33:06;;;;;;;;;11.00;10.00;;;;;12.82;95.52;99095.66;3596652;39;14793;-54
2021/04/30 05:35:33;;;;;;;;;16.00;12.00;;;;;12.72;95.70;99100.06;3597328;39;14233;-55
2021/04/30 05:38:00;;;;;;;;;16.00;14.25;;;;;12.67;95.89;99096.88;3597262;39;14031;-55
2021/04/30 05:40:28;;;;;;;;;14.75;11.00;;;;;12.71;96.34;99099.19;3596159;40;14039;-55
2021/04/30 05:42:54;;;;;;;;;15.00;14.25;;;;;12.59;96.63;99100.19;3597103;39;14028;-56
2021/04/30 05:45:21;;;;;;;;;18.50;12.00;;;;;12.70;96.88;99102.03;3604639;39;14014;-55
2021/04/30 05:47:48;;;;;;;;;16.00;11.00;;;;;12.59;96.73;99108.25;3596861;40;14043;-57
2021/04/30 05:50:15;;;;;;;;;16.00;15.00;;;;;12.63;97.23;99114.25;3602808;39;14005;-56
2021/04/30 05:52:42;;;;;;;;;19.75;16.50;;;;;12.49;96.99;99116.19;3606790;39;14043;-56
2021/04/30 05:55:10;;;;;;;;;19.00;16.00;;;;;12.62;97.76;99121.47;3606855;39;14200;-57
2021/04/30 05:57:38;;;;;;;;;18.00;12.25;;;;;12.55;98.76;99122.94;3605809;39;14052;-56
2021/04/30 06:00:09;;;;;;;;;16.00;13.50;;;;;12.51;99.08;99119.63;3602493;39;14018;-57
2021/04/30 06:02:37;;;;;;;;;16.75;14.50;;;;;12.57;99.06;99123.69;3589563;40;14000;-58
2021/04/30 06:05:06;;;;;;;;;18.25;14.25;;;;;12.71;98.80;99125.28;3594110;40;14501;-58
2021/04/30 06:07:33;;;;;;;;;18.50;15.50;;;;;12.79;98.71;99132.75;3588187;40;14207;-58
2021/04/30 06:10:03;;;;;;;;;18.25;16.25;;;;;12.91;97.66;99132.63;3591334;39;14114;-53
2021/04/30 06:12:30;;;;;;;;;17.00;15.75;;;;;13.06;97.40;99135.06;3587360;39;14227;-55
2021/04/30 06:14:58;;;;;;;;;18.50;17.25;;;;;13.36;95.74;99142.53;3594846;40;14509;-54
2021/04/30 06:17:25;;;;;;;;;16.00;16.00;;;;;13.36;96.53;99138.00;3596060;40;14279;-56
2021/04/30 06:19:52;;;;;;;;;16.00;15.50;;;;;13.38;95.48;99135.19;3595998;40;14050;-57
2021/04/30 06:22:19;;;;;;;;;13.25;13.00;;;;;13.44;96.14;99142.75;3596820;39;14087;-55
2021/04/30 06:24:46;;;;;;;;;24.00;19.25;;;;;13.75;94.85;99143.78;3596708;39;14199;-55
2021/04/30 06:27:14;;;;;;;;;15.50;12.50;;;;;14.31;92.56;99145.34;3597390;39;14255;-55
2021/04/30 06:29:41;;;;;;;;;24.25;21.25;;;;;14.13;93.09;99142.38;3598205;39;13220;-56
2021/04/30 06:32:09;;;;;;;;;17.00;13.75;;;;;14.13;93.45;99142.38;3598324;39;14260;-58
2021/04/30 06:34:37;;;;;;;;;18.00;11.75;;;;;14.98;90.96;99149.47;3598198;39;14052;-58
2021/04/30 06:37:04;;;;;;;;;14.25;11.25;;;;;19.43;71.81;99146.78;3597756;39;14772;-56
2021/04/30 06:39:31;;;;;;;;;11.25;11.25;;;;;17.04;76.96;99144.00;3598160;39;14011;-55
2021/04/30 06:42:02;;;;;;;;;13.50;13.50;;;;;18.34;74.09;99141.84;3598009;39;13941;-56
2021/04/30 06:44:33;;;;;;;;;11.75;10.50;;;;;16.91;77.30;99140.78;3597861;39;13956;-56
2021/04/30 06:47:00;;;;;;;;;17.50;12.25;;;;;16.26;82.08;99141.44;3597837;39;14523;-53
2021/04/30 06:49:27;;;;;;;;;11.25;11.25;;;;;22.35;59.13;99150.22;3601645;39;13969;-55
2021/04/30 06:51:55;;;;;;;;;10.75;9.50;;;;;19.80;65.40;99159.19;3607994;39;13924;-55
2021/04/30 06:54:22;;;;;;;;;12.25;11.50;;;;;22.49;58.53;99167.69;3607670;39;12815;-55
2021/04/30 06:56:49;;;;;;;;;15.50;13.00;;;;;23.68;54.60;99170.53;3608238;39;12457;-54
2021/04/30 06:59:16;;;;;;;;;13.50;12.00;;;;;23.78;52.94;99178.50;3607956;39;11666;-52
2021/04/30 07:01:42;;;;;;;;;11.00;10.67;;;;;19.51;65.80;99168.59;3607327;39;10616;-54
2021/04/30 07:04:10;;;;;;;;;12.75;12.25;;;;;18.89;68.26;99161.66;3608045;39;10451;-54
2021/04/30 07:06:37;;;;;;;;;15.75;14.50;;;;;18.60;70.08;99157.34;3608067;39;11644;-53
2021/04/30 07:09:05;;;;;;;;;18.00;14.75;;;;;16.80;76.39;99161.66;3608177;39;12122;-54
2021/04/30 07:11:32;;;;;;;;;18.75;15.25;;;;;18.33;71.19;99161.91;3608165;39;12791;-53
2021/04/30 07:14:00;;;;;;;;;1.00;0.25;;;;;18.27;71.81;99161.66;3608492;39;13320;-51
2021/04/30 07:16:27;;;;;;;;;15.50;13.50;;;;;18.04;73.73;99170.31;3607913;39;12368;-54
2021/04/30 07:18:54;;;;;;;;;18.75;15.00;;;;;17.95;72.79;99171.22;3608078;39;11407;-52
2021/04/30 07:21:21;;;;;;;;;18.75;18.50;;;;;18.36;73.40;99161.59;3607758;39;11430;-54
2021/04/30 07:23:47;;;;;;;;;14.25;14.25;;;;;18.46;72.50;99171.50;3608189;39;11863;-53
2021/04/30 07:26:15;;;;;;;;;21.00;15.00;;;;;17.94;72.35;99167.66;3608353;39;11415;-54
2021/04/30 07:28:41;;;;;;;;;16.25;15.75;;;;;18.25;73.12;99167.28;3607972;39;12118;-54
2021/04/30 07:31:08;;;;;;;;;17.00;16.00;;;;;18.26;72.44;99170.84;3608396;39;12643;-54
2021/04/30 07:33:45;;;;;;;;;14.50;14.50;;;;;17.42;75.11;99166.53;3608058;39;12656;-52
2021/04/30 07:36:16;;;;;;;;;22.25;17.75;;;;;18.05;73.63;99163.00;3608304;39;14702;-52
2021/04/30 07:38:43;;;;;;;;;18.50;17.50;;;;;18.00;75.52;99171.59;3607793;39;13973;-54
2021/04/30 07:41:12;;;;;;;;;19.50;16.75;;;;;18.00;73.92;99177.03;3607930;39;14151;-54
2021/04/30 07:43:39;;;;;;;;;21.75;19.75;;;;;18.25;72.47;99178.13;3608004;39;14621;-54
2021/04/30 07:46:06;;;;;;;;;20.75;18.00;;;;;18.29;71.64;99178.66;3608035;39;14463;-54
2021/04/30 07:48:34;;;;;;;;;22.00;18.75;;;;;18.84;71.94;99182.03;3607965;39;13971;-56
2021/04/30 07:51:02;;;;;;;;;23.25;20.00;;;;;18.98;71.07;99188.72;3587559;40;14019;-51
2021/04/30 07:53:32;;;;;;;;;22.50;19.75;;;;;19.11;72.25;99190.19;3586436;40;13990;-54
2021/04/30 07:56:00;;;;;;;;;21.00;20.25;;;;;18.15;74.77;99185.50;3586903;40;13974;-55
2021/04/30 07:58:28;;;;;;;;;24.75;18.50;;;;;18.39;72.80;99193.03;3587390;40;14023;-50
2021/04/30 08:00:57;;;;;;;;;24.00;19.00;;;;;17.97;72.67;99199.94;3586538;40;14043;-55
2021/04/30 08:03:24;;;;;;;;;22.75;22.00;;;;;19.06;70.64;99202.41;3587210;40;14484;-55
2021/04/30 08:05:52;;;;;;;;;25.75;23.25;;;;;18.73;69.80;99200.44;3587187;40;14498;-51
2021/04/30 08:08:20;;;;;;;;;12.50;12.00;;;;;17.75;72.85;99203.06;3587207;40;14185;-51
2021/04/30 08:10:47;;;;;;;;;33.75;28.50;;;;;17.63;73.62;99213.25;3587547;40;13990;-52
2021/04/30 08:13:14;;;;;;;;;22.25;20.00;;;;;17.78;72.56;99219.91;3587174;40;14046;-51
2021/04/30 08:15:41;;;;;;;;;30.25;22.75;;;;;17.57;73.36;99219.31;3587154;40;14002;-50
2021/04/30 08:18:08;;;;;;;;;26.75;24.25;;;;;17.51;72.60;99223.47;3589498;40;13996;-52
2021/04/30 08:20:35;;;;;;;;;23.50;19.75;;;;;17.58;72.95;99223.72;3586996;40;14508;-53
2021/04/30 08:23:04;;;;;;;;;27.00;24.50;;;;;17.67;73.73;99219.25;3587559;40;14242;-50
2021/04/30 08:25:31;;;;;;;;;26.00;23.75;;;;;17.90;72.32;99227.84;3587459;40;14245;-53
2021/04/30 08:27:58;;;;;;;;;28.25;27.00;;;;;17.77;72.71;99231.78;3591121;40;14081;-52
2021/04/30 08:30:25;;;;;;;;;26.75;23.50;;;;;17.79;73.34;99237.06;3596672;40;13983;-53
2021/04/30 08:32:51;;;;;;;;;27.50;26.50;;;;;17.62;72.71;99230.56;3589696;39;14412;-49
2021/04/30 08:35:19;;;;;;;;;26.25;23.50;;;;;17.84;72.50;99226.59;3588815;40;14076;-53
2021/04/30 08:37:46;;;;;;;;;31.75;28.00;;;;;17.98;72.43;99227.94;3590788;39;14041;-51
2021/04/30 08:40:13;;;;;;;;;28.50;26.75;;;;;18.16;71.12;99226.09;3590504;40;13966;-53
2021/04/30 08:42:40;;;;;;;;;28.25;25.25;;;;;18.96;69.39;99236.19;3595926;40;13966;-49
2021/04/30 08:45:14;;;;;;;;;33.25;26.50;;;;;18.48;70.26;99230.13;3590919;40;14168;-53
2021/04/30 08:47:44;;;;;;;;;29.50;26.50;;;;;18.42;69.12;99231.63;3596962;40;14009;-49
2021/04/30 08:50:13;;;;;;;;;27.75;24.75;;;;;18.09;69.76;99225.03;3596404;39;13988;-54
2021/04/30 08:52:41;;;;;;;;;30.25;25.75;;;;;18.08;70.87;99231.44;3598901;39;14071;-53
2021/04/30 08:55:15;;;;;;;;;34.25;26.00;;;;;19.09;66.94;99244.78;3595498;39;13967;-56
2021/04/30 08:57:53;;;;;;;;;23.25;21.00;;;;;18.23;68.24;99236.38;3594510;39;14155;-55
2021/04/30 09:00:21;;;;;;;;;21.75;21.00;;;;;18.80;66.70;99242.31;3606673;39;13962;-51
2021/04/30 09:03:11;;;;;;;;;23.00;21.75;;;;;19.39;65.32;99235.25;3593990;39;13975;-51
2021/04/30 09:05:50;;;;;;;;;24.25;23.25;;;;;19.62;65.22;99235.53;3594464;40;13992;-57
2021/04/30 09:08:18;;;;;;;;;23.25;21.00;;;;;19.57;65.08;99237.91;3586829;40;14177;-53
2021/04/30 09:11:04;;;;;;;;;26.00;23.00;;;;;19.78;65.20;99239.38;3594627;40;13976;-51
2021/04/30 09:13:31;;;;;;;;;23.00;21.75;;;;;20.05;63.57;99246.44;3596013;40;14162;-52
2021/04/30 09:16:07;;;;;;;;;22.00;20.50;;;;;19.26;66.61;99243.00;3587943;40;13721;-53
2021/04/30 09:18:34;;;;;;;;;23.00;22.50;;;;;18.88;66.34;99241.53;3587220;40;13322;-51
2021/04/30 09:21:10;;;;;;;;;27.00;25.00;;;;;18.78;67.69;99237.06;3586581;40;14819;-55
2021/04/30 09:23:48;;;;;;;;;27.00;24.00;;;;;19.15;65.75;99243.28;3595689;40;13977;-53
2021/04/30 09:26:26;;;;;;;;;26.75;25.75;;;;;19.45;64.98;99255.53;3590496;39;13959;-56
2021/04/30 09:29:08;;;;;;;;;24.00;20.25;;;;;19.67;65.82;99248.72;3596096;40;13970;-57
2021/04/30 09:31:44;;;;;;;;;23.75;22.50;;;;;20.06;64.42;99248.13;3595009;40;13981;-55
2021/04/30 09:34:36;;;;;;;;;22.00;20.00;;;;;20.13;63.17;99235.56;3596532;40;14000;-55
2021/04/30 09:37:15;;;;;;;;;26.50;24.00;;;;;20.07;63.79;99238.97;3594991;39;13504;-54
2021/04/30 09:39:53;;;;;;;;;23.00;20.00;;;;;20.50;62.75;99236.97;3595928;39;13615;-55
2021/04/30 09:42:23;;;;;;;;;18.50;17.75;;;;;21.03;62.16;99257.47;3596927;39;12832;-54
2021/04/30 09:44:54;;;;;;;;;24.50;22.50;;;;;20.10;62.57;99244.91;3596611;40;13126;-55
2021/04/30 09:47:32;;;;;;;;;23.25;21.75;;;;;19.91;63.55;99256.97;3593023;39;12954;-55
2021/04/30 09:50:09;;;;;;;;;22.75;21.00;;;;;19.91;63.70;99251.50;3597850;39;13072;-53
2021/04/30 09:52:36;;;;;;;;;24.75;21.75;;;;;20.57;62.84;99251.69;3606669;39;12826;-53
2021/04/30 09:55:06;;;;;;;;;25.50;24.75;;;;;19.59;63.67;99260.38;3606802;39;13100;-53
2021/04/30 09:57:33;;;;;;;;;25.75;23.75;;;;;19.38;65.50;99247.16;3601159;39;13500;-52
2021/04/30 10:00:12;;;;;;;;;24.00;22.00;;;;;19.64;64.50;99251.69;3586613;40;13400;-56
2021/04/30 10:02:40;;;;;;;;;27.25;21.75;;;;;20.47;62.33;99250.97;3588034;40;13113;-54
2021/04/30 10:05:17;;;;;;;;;26.75;23.25;;;;;19.37;64.34;99248.16;3588130;40;13352;-52
2021/04/30 10:08:15;;;;;;;;;27.75;22.25;;;;;20.01;61.94;99251.38;3593664;40;13989;-54
2021/04/30 10:10:42;;;;;;;;;25.25;22.00;;;;;19.61;63.54;99247.44;3598410;39;13975;-53
2021/04/30 10:13:09;;;;;;;;;21.50;19.25;;;;;19.56;64.63;99255.22;3590974;39;13978;-51
2021/04/30 10:15:35;;;;;;;;;24.50;21.75;;;;;19.24;65.37;99253.19;3588153;40;14216;-53
2021/04/30 10:18:07;;;;;;;;;19.75;19.25;;;;;19.35;65.62;99255.63;3589840;40;14014;-52
2021/04/30 10:20:34;;;;;;;;;22.25;19.50;;;;;19.27;65.56;99269.19;3596160;40;13930;-53
2021/04/30 10:23:06;;;;;;;;;27.75;24.75;;;;;20.16;62.76;99265.22;3598347;40;13984;-52
2021/04/30 10:25:34;;;;;;;;;25.00;21.00;;;;;19.90;63.64;99266.13;3597823;40;14477;-54
2021/04/30 10:28:03;;;;;;;;;24.75;22.75;;;;;19.94;63.99;99261.22;3606038;39;14181;-53
2021/04/30 10:30:44;;;;;;;;;20.50;19.25;;;;;20.99;61.43;99261.59;3596913;40;13965;-54
2021/04/30 10:33:37;;;;;;;;;25.25;18.50;;;;;20.94;61.37;99251.16;3596737;40;12959;-55
2021/04/30 10:36:21;;;;;;;;;22.25;19.25;;;;;20.73;63.06;99257.16;3597865;39;12954;-55
2021/04/30 10:38:54;;;;;;;;;22.25;21.00;;;;;19.93;63.09;99249.47;3598455;39;12828;-56
2021/04/30 10:41:42;;;;;;;;;25.75;22.75;;;;;20.54;60.56;99255.59;3596892;39;13163;-56
2021/04/30 10:44:23;;;;;;;;;24.75;21.75;;;;;20.32;62.61;99254.31;3587915;40;13222;-55
2021/04/30 10:47:05;;;;;;;;;29.00;23.50;;;;;20.29;63.14;99246.50;3587952;40;13119;-55
2021/04/30 10:49:33;;;;;;;;;28.00;23.50;;;;;19.82;63.51;99249.75;3595576;39;14021;-59
2021/04/30 10:52:06;;;;;;;;;26.00;23.00;;;;;20.26;62.56;99259.63;3598049;39;13971;-54
2021/04/30 10:54:41;;;;;;;;;28.50;25.00;;;;;20.52;63.11;99252.16;3597642;39;13458;-55
2021/04/30 10:57:19;;;;;;;;;29.50;25.75;;;;;20.70;61.90;99253.91;3594357;39;14189;-55
2021/04/30 10:59:51;;;;;;;;;30.25;26.00;;;;;21.10;59.33;99263.94;3598386;39;13126;-55
2021/04/30 11:02:29;;;;;;;;;23.50;23.50;;;;;21.27;57.88;99257.44;3597289;39;14230;-54
2021/04/30 11:05:11;;;;;;;;;26.00;23.75;;;;;21.51;58.64;99261.16;3597607;39;13157;-56
2021/04/30 11:07:43;;;;;;;;;24.50;22.50;;;;;21.26;59.24;99263.91;3590189;39;13308;-58
2021/04/30 11:10:22;;;;;;;;;23.50;21.75;;;;;20.64;60.14;99262.75;3587563;40;13464;-55
2021/04/30 11:13:14;;;;;;;;;25.25;21.50;;;;;20.47;61.18;99256.41;3587859;40;12923;-54
2021/04/30 11:15:47;;;;;;;;;25.75;24.75;;;;;20.72;61.47;99260.91;3587739;40;12815;-55
2021/04/30 11:18:21;;;;;;;;;25.75;24.00;;;;;20.27;61.35;99261.31;3587706;40;12987;-53
2021/04/30 11:20:57;;;;;;;;;25.00;24.50;;;;;20.06;63.79;99261.75;3590190;40;12810;-53
2021/04/30 11:23:42;;;;;;;;;29.50;25.25;;;;;19.73;62.82;99256.22;3597600;39;13465;-53
2021/04/30 11:26:15;;;;;;;;;25.75;24.75;;;;;19.60;63.25;99266.69;3597922;39;13082;-55
2021/04/30 11:28:42;;;;;;;;;27.75;26.00;;;;;20.03;61.34;99262.09;3597394;39;14524;-54